Time;durP1;ratioP1;P1;durP2;ratioP2;P2;SDS_P1;SDS_P2;PMS_P1;PMS_P2;Temp;Humidity;BMP_temperature;BMP_pressure;BME280_temperature;BME280_humidity;BME280_pressure;Samples;Min_cycle;Max_cycle;Signal;HPM_P1;HPM_P2
2022/04/06 00:01:53;;;;;;;9.13;5.88;;;13.30;70.60;;;;;;4993207;28;20494;-48
2022/04/06 00:04:23;;;;;;;10.60;5.20;;;13.30;70.50;;;;;;4989557;28;20038;-47
2022/04/06 00:06:52;;;;;;;12.20;5.43;;;13.30;70.60;;;;;;4990043;28;20054;-51
2022/04/06 00:09:21;;;;;;;12.88;5.32;;;13.30;70.70;;;;;;4985380;28;20050;-50
2022/04/06 00:11:48;;;;;;;11.15;5.53;;;13.20;70.50;;;;;;4990867;28;20043;-49
2022/04/06 00:14:16;;;;;;;12.00;5.18;;;13.30;70.60;;;;;;4992271;28;20050;-47
2022/04/06 00:16:43;;;;;;;10.13;5.00;;;13.30;70.50;;;;;;4991770;28;20054;-49
2022/04/06 00:19:10;;;;;;;9.90;5.40;;;13.30;70.60;;;;;;4993066;28;20630;-50
2022/04/06 00:21:37;;;;;;;8.82;4.28;;;13.20;70.40;;;;;;4986642;28;20461;-51
2022/04/06 00:24:04;;;;;;;12.30;4.85;;;13.20;70.40;;;;;;4986759;28;20070;-47
2022/04/06 00:26:31;;;;;;;9.32;4.78;;;13.20;70.30;;;;;;5022383;22;20046;-46
2022/04/06 00:28:57;;;;;;;9.75;5.30;;;13.20;70.30;;;;;;5026699;28;20489;-47
2022/04/06 00:31:24;;;;;;;7.45;4.80;;;13.20;70.30;;;;;;5051960;28;20045;-50
2022/04/06 00:33:51;;;;;;;7.70;5.47;;;13.20;70.50;;;;;;5051915;28;20448;-48
2022/04/06 00:36:18;;;;;;;10.00;4.70;;;13.20;70.40;;;;;;5050070;28;20048;-51
2022/04/06 00:38:45;;;;;;;6.03;4.40;;;13.20;70.40;;;;;;5067603;28;20068;-50
2022/04/06 00:41:11;;;;;;;10.30;4.78;;;13.10;70.20;;;;;;5063483;28;20111;-50
2022/04/06 00:43:38;;;;;;;9.95;4.55;;;13.10;70.30;;;;;;5068352;28;20053;-50
2022/04/06 00:46:05;;;;;;;7.90;4.53;;;13.10;70.30;;;;;;5061774;28;20041;-51
2022/04/06 00:48:32;;;;;;;10.50;4.40;;;13.10;70.40;;;;;;5070875;28;20110;-48
2022/04/06 00:50:59;;;;;;;8.07;4.18;;;13.10;70.40;;;;;;5066556;28;20044;-51
2022/04/06 00:53:26;;;;;;;7.78;4.50;;;13.10;70.30;;;;;;5066729;28;20033;-49
2022/04/06 00:55:54;;;;;;;8.15;4.03;;;13.10;70.30;;;;;;5067542;28;20040;-51
2022/04/06 00:58:21;;;;;;;10.13;4.88;;;13.10;70.20;;;;;;5067542;28;20037;-50
2022/04/06 01:00:47;;;;;;;9.20;4.47;;;13.10;70.20;;;;;;5047399;28;20068;-52
2022/04/06 01:03:14;;;;;;;10.15;4.22;;;13.10;70.20;;;;;;5071030;28;20408;-51
2022/04/06 01:05:42;;;;;;;7.88;4.07;;;13.00;70.30;;;;;;5062279;28;20040;-51
2022/04/06 01:08:11;;;;;;;8.07;4.22;;;13.00;70.20;;;;;;5069399;28;20044;-48
2022/04/06 01:10:38;;;;;;;8.18;3.63;;;13.00;70.20;;;;;;5066770;28;20095;-50
2022/04/06 01:13:05;;;;;;;8.60;4.18;;;13.00;70.20;;;;;;5061137;28;20440;-49
2022/04/06 01:15:32;;;;;;;10.32;4.22;;;13.00;70.20;;;;;;5058748;28;20033;-51
2022/04/06 01:18:02;;;;;;;6.78;3.22;;;13.00;70.20;;;;;;5066696;28;20063;-51
2022/04/06 01:20:29;;;;;;;7.55;4.13;;;13.00;70.10;;;;;;5066943;28;20048;-51
2022/04/06 01:22:57;;;;;;;6.05;3.85;;;13.00;70.10;;;;;;5062287;28;20073;-52
2022/04/06 01:25:24;;;;;;;8.77;3.78;;;13.00;70.20;;;;;;5070366;28;20098;-51
2022/04/06 01:27:51;;;;;;;6.20;4.03;;;13.00;70.20;;;;;;5070407;28;20119;-49
2022/04/06 01:30:17;;;;;;;12.25;3.90;;;13.00;70.80;;;;;;5067801;28;20044;-50
2022/04/06 01:32:44;;;;;;;8.52;3.67;;;12.90;70.00;;;;;;5069857;28;20488;-48
2022/04/06 01:35:11;;;;;;;8.95;3.42;;;12.90;70.00;;;;;;5051435;28;20065;-51
2022/04/06 01:37:38;;;;;;;7.78;3.50;;;13.00;70.00;;;;;;5048707;28;20496;-54
2022/04/06 01:40:08;;;;;;;10.50;3.88;;;12.90;70.00;;;;;;5070008;28;20100;-50
2022/04/06 01:42:35;;;;;;;6.78;3.35;;;12.90;69.90;;;;;;5062844;28;20048;-47
2022/04/06 01:45:03;;;;;;;9.93;3.58;;;12.90;70.10;;;;;;5069750;28;20068;-51
2022/04/06 01:47:32;;;;;;;7.43;3.42;;;12.90;70.10;;;;;;5066851;28;20038;-51
2022/04/06 01:52:44;;;;;;;9.45;3.42;;;12.90;69.90;;;;;;5065780;28;20048;-47
2022/04/06 01:55:13;;;;;;;5.63;3.20;;;12.90;69.90;;;;;;5070059;28;20036;-49
2022/04/06 01:57:41;;;;;;;11.60;3.80;;;12.90;69.90;;;;;;5064869;28;20040;-51
2022/04/06 02:00:10;;;;;;;5.80;3.30;;;12.90;69.70;;;;;;5067784;28;20041;-50
2022/04/06 02:02:41;;;;;;;6.18;3.15;;;12.90;69.60;;;;;;5065151;28;20044;-48
2022/04/06 02:05:13;;;;;;;5.82;3.10;;;12.90;69.80;;;;;;5067130;28;20271;-50
2022/04/06 02:07:42;;;;;;;7.45;3.10;;;12.90;69.80;;;;;;5069897;28;20041;-50
2022/04/06 02:10:10;;;;;;;9.40;3.35;;;12.90;69.80;;;;;;5051104;28;20060;-51
2022/04/06 02:12:38;;;;;;;7.32;3.45;;;12.90;69.60;;;;;;5054852;28;20048;-51
2022/04/06 02:15:06;;;;;;;7.05;3.35;;;12.90;69.30;;;;;;5056184;28;20120;-51
2022/04/06 02:17:33;;;;;;;6.68;3.22;;;12.90;69.50;;;;;;5066933;28;20090;-51
2022/04/06 02:20:00;;;;;;;10.05;3.53;;;12.80;69.50;;;;;;5043292;28;20041;-51
2022/04/06 02:22:27;;;;;;;8.40;3.70;;;12.80;69.50;;;;;;5069108;28;20040;-49
2022/04/06 02:24:54;;;;;;;7.95;3.22;;;12.80;69.40;;;;;;5064096;28;20467;-50
2022/04/06 02:27:21;;;;;;;10.35;3.40;;;12.80;69.30;;;;;;5057489;28;20103;-50
2022/04/06 02:29:48;;;;;;;5.85;3.25;;;12.80;69.20;;;;;;5050071;28;20451;-51
2022/04/06 02:32:15;;;;;;;7.25;3.30;;;12.80;69.20;;;;;;5051979;28;20037;-51
2022/04/06 02:34:42;;;;;;;4.82;3.22;;;12.80;69.30;;;;;;5043769;28;20123;-51
2022/04/06 02:37:10;;;;;;;6.97;3.72;;;12.80;69.40;;;;;;5062565;28;20122;-52
2022/04/06 02:39:36;;;;;;;10.93;4.22;;;12.80;69.40;;;;;;5063901;28;20071;-48
2022/04/06 02:42:04;;;;;;;8.30;4.43;;;12.80;69.30;;;;;;5069873;28;20044;-46
2022/04/06 02:44:31;;;;;;;5.60;3.70;;;12.80;69.20;;;;;;5067548;28;20071;-47
2022/04/06 02:46:59;;;;;;;9.45;3.75;;;12.80;69.20;;;;;;5065559;28;20063;-51
2022/04/06 02:49:25;;;;;;;6.75;3.72;;;12.80;69.10;;;;;;5062478;28;20053;-51
2022/04/06 02:51:52;;;;;;;6.35;3.90;;;12.70;69.10;;;;;;5069265;28;20068;-51
2022/04/06 02:54:19;;;;;;;10.55;4.80;;;12.80;69.20;;;;;;5065076;28;20507;-51
2022/04/06 02:56:46;;;;;;;7.75;3.53;;;12.80;69.20;;;;;;5061568;28;20044;-51
2022/04/06 02:59:12;;;;;;;6.65;3.67;;;12.70;69.20;;;;;;5068320;28;20045;-51
2022/04/06 03:01:39;;;;;;;9.38;3.92;;;12.80;69.20;;;;;;5066680;28;20045;-50
2022/04/06 03:04:06;;;;;;;7.55;4.00;;;12.70;69.10;;;;;;5068824;28;20494;-51
2022/04/06 03:06:37;;;;;;;7.20;4.32;;;12.70;69.10;;;;;;5042012;28;20048;-51
2022/04/06 03:09:04;;;;;;;5.40;4.00;;;12.70;69.10;;;;;;5067198;28;20090;-51
2022/04/06 03:11:32;;;;;;;8.98;4.10;;;12.70;68.90;;;;;;5044025;28;20040;-51
2022/04/06 03:13:58;;;;;;;8.63;4.32;;;12.70;69.00;;;;;;5065758;28;20083;-51
2022/04/06 03:16:26;;;;;;;7.75;3.75;;;12.60;68.80;;;;;;5042393;28;20045;-51
2022/04/06 03:18:53;;;;;;;7.32;4.03;;;12.60;68.80;;;;;;5053410;28;20044;-50
2022/04/06 03:21:20;;;;;;;6.32;3.70;;;12.60;68.70;;;;;;5066898;28;20063;-50
2022/04/06 03:23:47;;;;;;;9.20;3.85;;;12.50;68.70;;;;;;5069917;28;20685;-51
2022/04/06 03:26:14;;;;;;;6.22;3.83;;;12.50;68.70;;;;;;5069767;28;20106;-50
2022/04/06 03:28:41;;;;;;;6.40;3.60;;;12.50;68.60;;;;;;5067366;28;20040;-46
2022/04/06 03:31:08;;;;;;;7.07;3.65;;;12.40;68.60;;;;;;5069306;28;20045;-51
2022/04/06 03:33:35;;;;;;;7.68;4.53;;;12.40;68.60;;;;;;5067185;28;20060;-50
2022/04/06 03:36:03;;;;;;;6.85;3.38;;;12.40;68.60;;;;;;5058908;28;20496;-50
2022/04/06 03:38:30;;;;;;;5.75;3.20;;;12.40;68.70;;;;;;5072921;28;20106;-49
2022/04/06 03:40:57;;;;;;;10.30;3.63;;;12.40;68.80;;;;;;5068241;28;20044;-51
2022/04/06 03:43:24;;;;;;;6.20;3.42;;;12.40;68.70;;;;;;5068947;28;20189;-51
2022/04/06 03:45:52;;;;;;;6.55;3.42;;;12.40;68.60;;;;;;5067967;28;20048;-50
2022/04/06 03:48:21;;;;;;;6.82;3.13;;;12.40;68.50;;;;;;5072314;28;20044;-49
2022/04/06 03:50:50;;;;;;;6.88;3.25;;;12.40;68.40;;;;;;5068262;28;20459;-52
2022/04/06 03:53:17;;;;;;;6.45;3.30;;;12.40;68.30;;;;;;5064888;28;20063;-50
2022/04/06 03:55:44;;;;;;;6.13;3.63;;;12.50;68.10;;;;;;5071706;28;20052;-46
2022/04/06 03:58:11;;;;;;;5.60;2.90;;;12.50;68.00;;;;;;5070396;28;20047;-51
2022/04/06 04:00:38;;;;;;;7.88;3.05;;;12.50;67.90;;;;;;5068854;28;20451;-51
2022/04/06 04:03:06;;;;;;;5.93;2.90;;;12.50;67.70;;;;;;5046939;28;20044;-48
2022/04/06 04:05:34;;;;;;;5.53;2.97;;;12.50;67.60;;;;;;5071156;28;20044;-50
2022/04/06 04:08:01;;;;;;;7.90;3.15;;;12.50;67.70;;;;;;5050460;28;20055;-51
2022/04/06 04:10:28;;;;;;;6.70;2.30;;;12.60;67.70;;;;;;5060317;28;20044;-50
2022/04/06 04:12:54;;;;;;;4.13;2.35;;;12.50;67.50;;;;;;5060518;28;20497;-50
2022/04/06 04:15:22;;;;;;;4.68;2.70;;;12.50;67.40;;;;;;5058953;28;20033;-51
2022/04/06 04:17:48;;;;;;;4.25;2.47;;;12.50;67.60;;;;;;5061622;28;20037;-50
2022/04/06 04:20:15;;;;;;;5.60;2.60;;;12.50;67.20;;;;;;5069058;28;20107;-46
2022/04/06 04:22:42;;;;;;;6.35;2.58;;;12.50;67.20;;;;;;5060702;28;20052;-51
2022/04/06 04:25:10;;;;;;;6.13;2.95;;;12.60;67.30;;;;;;5071153;28;20040;-51
2022/04/06 04:27:37;;;;;;;9.00;3.60;;;12.60;67.30;;;;;;5062654;28;20028;-50
2022/04/06 04:30:04;;;;;;;7.88;3.15;;;12.60;67.30;;;;;;5072226;28;20511;-51
2022/04/06 04:32:34;;;;;;;5.40;3.05;;;12.50;67.10;;;;;;5067551;28;20044;-49
2022/04/06 04:35:05;;;;;;;6.30;3.58;;;12.60;67.20;;;;;;5051202;28;20041;-50
2022/04/06 04:37:32;;;;;;;7.78;3.72;;;12.60;67.30;;;;;;5039179;28;20040;-51
2022/04/06 04:39:59;;;;;;;6.88;3.67;;;12.60;67.30;;;;;;5043228;28;20381;-50
2022/04/06 04:42:25;;;;;;;6.07;3.35;;;12.60;67.40;;;;;;5062199;28;20048;-49
2022/04/06 04:44:52;;;;;;;8.32;4.40;;;12.60;67.50;;;;;;5061532;28;20091;-51
2022/04/06 04:47:19;;;;;;;7.18;3.45;;;12.60;67.50;;;;;;5063748;28;20435;-51
2022/04/06 04:49:48;;;;;;;9.88;3.60;;;12.60;67.60;;;;;;5060513;28;20516;-50
2022/04/06 04:52:15;;;;;;;8.93;4.05;;;12.60;67.60;;;;;;5070809;28;20098;-50
2022/04/06 04:54:42;;;;;;;9.40;3.83;;;12.60;67.70;;;;;;5061555;28;20582;-48
2022/04/06 04:57:09;;;;;;;7.03;3.42;;;12.60;67.70;;;;;;5042804;28;20053;-47
2022/04/06 04:59:35;;;;;;;6.38;3.35;;;12.60;67.70;;;;;;5058946;28;20057;-49
2022/04/06 05:02:03;;;;;;;7.68;3.55;;;12.60;67.70;;;;;;5062318;28;20041;-47
2022/04/06 05:04:29;;;;;;;8.07;4.20;;;12.60;67.80;;;;;;5040264;28;20036;-47
2022/04/06 05:06:56;;;;;;;7.47;3.70;;;12.60;67.80;;;;;;5062429;28;20560;-50
2022/04/06 05:09:23;;;;;;;13.43;4.07;;;12.60;67.80;;;;;;5059677;28;20091;-50
2022/04/06 05:11:50;;;;;;;7.57;3.47;;;12.60;67.70;;;;;;5062161;28;20559;-49
2022/04/06 05:14:16;;;;;;;10.77;3.40;;;12.60;67.80;;;;;;5064789;28;20106;-49
2022/04/06 05:16:43;;;;;;;8.68;3.53;;;12.60;67.80;;;;;;5061830;28;20044;-50
2022/04/06 05:19:10;;;;;;;9.43;3.67;;;12.60;67.80;;;;;;5063434;28;20036;-52
2022/04/06 05:21:36;;;;;;;5.97;3.17;;;12.60;67.80;;;;;;5071610;28;20048;-48
2022/04/06 05:24:08;;;;;;;6.65;3.10;;;12.60;67.80;;;;;;5068552;28;20467;-49
2022/04/06 05:26:42;;;;;;;8.60;3.78;;;12.60;67.80;;;;;;5063705;28;20041;-47
2022/04/06 05:29:09;;;;;;;7.95;2.97;;;12.60;67.60;;;;;;5069427;28;20119;-50
2022/04/06 05:31:36;;;;;;;6.95;3.55;;;12.60;67.60;;;;;;5067214;28;20064;-47
2022/04/06 05:34:03;;;;;;;8.65;3.75;;;12.60;67.60;;;;;;5068224;28;20083;-50
2022/04/06 05:36:30;;;;;;;6.43;3.25;;;12.60;67.50;;;;;;5061112;28;20939;-49
2022/04/06 05:38:57;;;;;;;4.97;3.17;;;12.60;67.70;;;;;;5071376;28;20519;-49
2022/04/06 05:41:24;;;;;;;6.10;2.92;;;12.60;67.60;;;;;;5063389;28;20044;-46
2022/04/06 05:43:51;;;;;;;8.38;3.53;;;12.60;67.40;;;;;;5068310;28;20541;-47
2022/04/06 05:46:18;;;;;;;7.30;3.17;;;12.60;67.30;;;;;;5053476;28;20049;-49
2022/04/06 05:48:48;;;;;;;9.00;2.83;;;12.60;67.40;;;;;;5070733;28;20483;-48
2022/04/06 05:51:14;;;;;;;7.43;2.53;;;12.60;67.30;;;;;;5068779;28;20037;-47
2022/04/06 05:53:43;;;;;;;6.10;2.75;;;12.60;67.20;;;;;;5065357;28;20574;-49
2022/04/06 05:56:12;;;;;;;5.43;2.22;;;12.60;67.30;;;;;;5060764;28;20408;-47
2022/04/06 05:58:39;;;;;;;4.65;2.45;;;12.60;67.40;;;;;;5060693;28;20049;-46
2022/04/06 06:01:05;;;;;;;8.93;2.83;;;12.70;67.60;;;;;;5058412;28;20033;-50
2022/04/06 06:03:32;;;;;;;9.10;3.90;;;12.60;67.50;;;;;;5060479;28;20043;-48
2022/04/06 06:05:59;;;;;;;6.15;2.63;;;12.60;67.50;;;;;;5055689;28;20500;-46
2022/04/06 06:08:26;;;;;;;5.40;3.00;;;12.60;67.50;;;;;;5067096;28;20095;-48
2022/04/06 06:10:53;;;;;;;8.45;2.97;;;12.60;67.50;;;;;;5062081;28;20040;-52
2022/04/06 06:13:19;;;;;;;7.88;3.00;;;12.60;67.70;;;;;;5059180;28;20032;-48
2022/04/06 06:15:49;;;;;;;5.72;2.72;;;12.60;67.80;;;;;;5056833;28;20525;-49
2022/04/06 06:18:15;;;;;;;7.50;3.63;;;12.60;68.10;;;;;;5059542;28;20120;-49
2022/04/06 06:20:42;;;;;;;6.07;3.15;;;12.50;68.10;;;;;;5065650;28;20051;-49
2022/04/06 06:23:09;;;;;;;9.68;3.60;;;12.50;68.10;;;;;;5060315;28;20095;-47
2022/04/06 06:25:38;;;;;;;5.03;3.08;;;12.50;68.30;;;;;;5069413;28;20056;-51
2022/04/06 06:28:05;;;;;;;4.53;3.13;;;12.50;68.40;;;;;;5067759;28;20491;-50
2022/04/06 06:30:32;;;;;;;5.40;2.92;;;12.50;68.50;;;;;;5069786;28;20048;-50
2022/04/06 06:32:59;;;;;;;5.90;2.80;;;12.50;68.60;;;;;;5060018;28;20052;-49
2022/04/06 06:35:26;;;;;;;5.40;3.35;;;12.40;68.50;;;;;;5051745;28;20063;-51
2022/04/06 06:37:54;;;;;;;6.72;2.90;;;12.40;68.70;;;;;;5061695;28;20488;-51
2022/04/06 06:40:23;;;;;;;3.67;2.70;;;12.40;68.90;;;;;;5068678;28;20033;-48
2022/04/06 06:42:51;;;;;;;6.65;3.10;;;12.40;69.10;;;;;;5061844;28;20044;-51
2022/04/06 06:45:18;;;;;;;5.63;2.92;;;12.40;69.10;;;;;;5068594;28;20048;-51
2022/04/06 06:47:46;;;;;;;4.43;2.55;;;12.40;69.00;;;;;;5045708;28;20049;-49
2022/04/06 06:50:17;;;;;;;6.88;2.60;;;12.40;69.20;;;;;;5066642;28;20098;-50
2022/04/06 06:52:44;;;;;;;6.55;3.33;;;12.40;69.10;;;;;;5069495;28;20044;-49
2022/04/06 06:55:15;;;;;;;4.57;3.33;;;12.40;69.00;;;;;;5065739;28;20049;-50
2022/04/06 06:57:42;;;;;;;8.70;3.35;;;12.60;69.00;;;;;;5064860;28;20135;-48
2022/04/06 07:00:11;;;;;;;6.40;3.75;;;12.40;69.00;;;;;;5068762;28;20442;-50
2022/04/06 07:02:40;;;;;;;5.88;3.80;;;12.40;68.80;;;;;;5059702;28;20063;-49
2022/04/06 07:05:08;;;;;;;5.13;2.90;;;12.40;68.90;;;;;;5063359;28;20033;-50
2022/04/06 07:07:55;;;;;;;6.50;2.75;;;12.50;68.80;;;;;;5051860;28;20056;-48
2022/04/06 07:10:23;;;;;;;9.43;3.40;;;12.50;68.60;;;;;;5066449;28;20567;-51
2022/04/06 07:12:51;;;;;;;6.15;3.10;;;12.50;68.70;;;;;;5055676;28;20529;-47
2022/04/06 07:15:18;;;;;;;6.53;3.28;;;12.50;68.70;;;;;;5062348;28;20044;-48
2022/04/06 07:17:53;;;;;;;5.93;3.35;;;12.50;68.70;;;;;;5058544;28;20036;-49
2022/04/06 07:20:24;;;;;;;5.35;3.00;;;12.50;68.70;;;;;;5061300;28;20484;-49
2022/04/06 07:22:51;;;;;;;4.82;2.60;;;12.50;69.30;;;;;;5062211;28;20049;-47
2022/04/06 07:25:19;;;;;;;4.28;2.92;;;12.50;68.70;;;;;;5063156;28;20037;-49
2022/04/06 07:27:46;;;;;;;4.90;3.28;;;12.60;68.80;;;;;;5058972;28;20037;-47
2022/04/06 07:30:14;;;;;;;5.90;3.00;;;12.60;68.80;;;;;;5049302;28;20099;-48
2022/04/06 07:32:41;;;;;;;6.22;2.90;;;12.60;68.50;;;;;;5060902;28;20484;-50
2022/04/06 07:35:08;;;;;;;6.30;3.20;;;12.60;68.70;;;;;;5064712;28;20087;-47
2022/04/06 07:37:40;;;;;;;4.95;2.65;;;12.60;68.50;;;;;;5062187;28;20041;-50
2022/04/06 07:40:09;;;;;;;5.53;2.90;;;12.70;68.50;;;;;;5067243;28;20087;-47
2022/04/06 07:42:40;;;;;;;4.32;2.88;;;12.70;68.30;;;;;;5045705;28;20068;-49
2022/04/06 07:45:09;;;;;;;5.45;3.00;;;12.70;67.80;;;;;;5065806;28;20041;-51
2022/04/06 07:47:40;;;;;;;7.88;3.20;;;12.80;67.70;;;;;;5062382;28;20049;-47
2022/04/06 07:50:08;;;;;;;6.47;3.33;;;12.80;67.30;;;;;;5069745;28;20102;-47
2022/04/06 07:52:36;;;;;;;5.68;2.60;;;12.80;67.20;;;;;;5063050;28;20514;-48
2022/04/06 07:55:06;;;;;;;5.75;2.20;;;12.80;67.00;;;;;;5058502;28;20036;-48
2022/04/06 07:57:34;;;;;;;5.32;3.10;;;12.80;67.00;;;;;;5057162;28;20377;-51
2022/04/06 08:00:06;;;;;;;4.72;2.50;;;12.90;67.10;;;;;;5070650;28;20096;-47
2022/04/06 08:02:33;;;;;;;2.53;2.05;;;12.90;66.90;;;;;;5063662;28;20086;-48
2022/04/06 08:04:59;;;;;;;4.90;2.33;;;12.90;66.70;;;;;;5066064;28;20048;-46
2022/04/06 08:07:26;;;;;;;4.43;2.45;;;13.00;66.40;;;;;;5059534;28;20700;-48
2022/04/06 08:09:53;;;;;;;7.35;2.47;;;13.00;66.40;;;;;;5056879;28;20037;-50
2022/04/06 08:12:20;;;;;;;5.55;2.45;;;13.00;66.00;;;;;;5057271;28;20037;-48
2022/04/06 08:14:48;;;;;;;3.67;1.90;;;13.10;66.20;;;;;;5063348;28;20068;-48
2022/04/06 08:17:15;;;;;;;4.78;2.30;;;13.20;65.90;;;;;;5052263;28;20049;-48
2022/04/06 08:19:42;;;;;;;4.88;1.75;;;13.20;65.70;;;;;;5052422;28;20087;-47
2022/04/06 08:22:09;;;;;;;4.10;1.55;;;13.30;64.90;;;;;;5063043;28;20048;-46
2022/04/06 08:24:35;;;;;;;2.67;1.35;;;13.40;64.60;;;;;;5067286;28;20047;-51
2022/04/06 08:27:02;;;;;;;4.82;1.98;;;13.50;64.10;;;;;;5068620;28;20048;-49
2022/04/06 08:29:29;;;;;;;2.65;1.58;;;13.50;64.10;;;;;;5072731;28;20059;-47
2022/04/06 08:31:56;;;;;;;6.38;2.75;;;13.60;63.60;;;;;;5067864;28;20439;-47
2022/04/06 08:34:23;;;;;;;6.22;2.80;;;13.60;63.60;;;;;;5068921;28;20120;-48
2022/04/06 08:36:50;;;;;;;4.47;1.98;;;13.70;63.40;;;;;;5064123;28;20071;-50
2022/04/06 08:39:16;;;;;;;5.47;2.15;;;13.80;63.00;;;;;;5070720;28;20036;-51
2022/04/06 08:41:47;;;;;;;8.80;1.88;;;13.80;62.80;;;;;;5070027;28;20036;-50
2022/04/06 08:44:23;;;;;;;3.33;1.55;;;13.80;62.50;;;;;;5060809;28;20040;-47
2022/04/06 08:46:52;;;;;;;4.90;2.00;;;13.90;61.70;;;;;;5061567;28;20412;-47
2022/04/06 08:49:22;;;;;;;3.40;1.55;;;13.90;62.30;;;;;;5066920;28;20045;-48
2022/04/06 08:51:50;;;;;;;2.90;1.60;;;13.90;62.00;;;;;;5069160;28;20048;-47
2022/04/06 08:54:17;;;;;;;4.88;1.60;;;13.90;61.70;;;;;;5064014;28;20037;-48
2022/04/06 08:56:44;;;;;;;5.65;1.60;;;14.00;61.60;;;;;;5069195;28;20048;-47
2022/04/06 08:59:12;;;;;;;3.63;1.42;;;14.00;61.80;;;;;;5062360;28;20736;-46
2022/04/06 09:01:40;;;;;;;5.78;1.83;;;14.00;61.40;;;;;;5058400;28;20041;-51
2022/04/06 09:04:07;;;;;;;4.25;1.35;;;14.00;61.20;;;;;;5060611;28;20115;-49
2022/04/06 09:06:54;;;;;;;2.92;2.22;;;14.00;61.00;;;;;;5060344;28;20048;-47
2022/04/06 09:09:24;;;;;;;3.55;1.63;;;14.10;60.90;;;;;;5061331;28;20069;-50
2022/04/06 09:11:51;;;;;;;3.20;1.60;;;14.10;61.30;;;;;;5062572;28;20487;-47
2022/04/06 09:14:29;;;;;;;4.18;1.48;;;14.10;60.90;;;;;;5059716;28;20045;-50
2022/04/06 09:17:06;;;;;;;3.00;1.80;;;14.10;60.20;;;;;;5056029;28;20489;-48
2022/04/06 09:19:38;;;;;;;4.22;1.80;;;14.10;60.20;;;;;;5062200;28;20033;-49
2022/04/06 09:22:08;;;;;;;4.00;1.58;;;14.10;60.40;;;;;;5068531;28;20095;-46
2022/04/06 09:24:34;;;;;;;3.10;1.58;;;14.10;60.40;;;;;;5070843;28;20040;-47
2022/04/06 09:27:04;;;;;;;2.58;1.33;;;14.10;60.70;;;;;;5061838;28;20124;-48
2022/04/06 09:29:34;;;;;;;2.22;1.48;;;14.10;60.50;;;;;;5061015;28;20044;-47
2022/04/06 09:32:08;;;;;;;3.28;1.63;;;14.10;60.60;;;;;;5064985;28;20052;-46
2022/04/06 09:34:55;;;;;;;3.45;1.00;;;14.10;60.10;;;;;;5068823;28;20364;-48
2022/04/06 09:37:22;;;;;;;6.32;1.30;;;14.10;60.80;;;;;;5055778;28;20475;-51
2022/04/06 09:39:49;;;;;;;2.85;1.17;;;14.10;60.80;;;;;;5053608;28;20725;-50
2022/04/06 09:42:24;;;;;;;2.47;1.42;;;14.10;60.80;;;;;;5050884;28;20120;-50
2022/04/06 09:47:38;;;;;;;3.67;1.10;;;14.10;60.60;;;;;;5064138;28;20483;-50
2022/04/06 09:50:16;;;;;;;2.88;1.20;;;14.10;60.80;;;;;;5058107;28;20037;-48
2022/04/06 09:52:51;;;;;;;3.72;1.30;;;14.00;60.40;;;;;;5059586;28;20033;-47
2022/04/06 09:55:20;;;;;;;3.20;1.60;;;14.10;60.40;;;;;;5065167;28;20040;-47
2022/04/06 09:57:56;;;;;;;1.90;1.60;;;14.00;60.80;;;;;;5062199;28;20534;-48
2022/04/06 10:00:28;;;;;;;3.92;1.55;;;14.00;60.20;;;;;;5070707;28;20098;-51
2022/04/06 10:03:04;;;;;;;5.90;1.95;;;14.00;60.40;;;;;;5066741;28;20090;-46
2022/04/06 10:05:33;;;;;;;4.05;1.52;;;14.00;61.10;;;;;;5060763;28;20048;-50
2022/04/06 10:08:06;;;;;;;3.05;1.55;;;14.00;61.40;;;;;;5044243;28;20473;-50
2022/04/06 10:10:38;;;;;;;4.10;1.60;;;14.00;60.90;;;;;;5050040;28;20045;-50
2022/04/06 10:13:07;;;;;;;2.85;1.23;;;14.10;61.30;;;;;;5056572;28;20095;-47
2022/04/06 10:15:55;;;;;;;4.47;1.55;;;14.10;61.30;;;;;;5058393;28;20128;-48
2022/04/06 10:18:22;;;;;;;3.30;1.10;;;14.20;61.10;;;;;;5061945;28;20041;-47
2022/04/06 10:20:59;;;;;;;2.35;1.17;;;14.20;61.20;;;;;;5061847;28;20036;-50
2022/04/06 10:23:40;;;;;;;2.33;1.30;;;14.30;61.20;;;;;;5046233;28;20509;-48
2022/04/06 10:26:31;;;;;;;3.50;1.10;;;14.40;60.70;;;;;;5051105;28;20053;-47
2022/04/06 10:28:58;;;;;;;4.30;1.73;;;14.50;60.20;;;;;;5058338;28;20068;-47
2022/04/06 10:31:31;;;;;;;1.92;1.55;;;14.50;60.30;;;;;;5053451;28;20064;-47
2022/04/06 10:34:24;;;;;;;3.33;1.65;;;14.50;59.80;;;;;;5057057;28;20112;-49
2022/04/06 10:37:10;;;;;;;2.13;1.45;;;14.50;59.80;;;;;;5040700;28;20048;-47
2022/04/06 10:40:00;;;;;;;5.22;2.03;;;14.50;60.00;;;;;;5064755;28;20488;-50
2022/04/06 10:42:35;;;;;;;3.30;1.38;;;14.50;59.40;;;;;;5049730;28;20049;-47
2022/04/06 10:45:05;;;;;;;5.63;1.55;;;14.40;59.60;;;;;;5069622;28;20047;-50
2022/04/06 10:47:36;;;;;;;1.70;1.30;;;14.40;60.10;;;;;;5061193;28;20044;-50
2022/04/06 10:50:15;;;;;;;1.77;1.60;;;14.40;60.40;;;;;;5069576;28;20042;-50
2022/04/06 10:52:45;;;;;;;3.25;1.63;;;14.40;59.60;;;;;;5067578;28;20530;-48
2022/04/06 10:55:22;;;;;;;4.78;1.67;;;14.40;60.30;;;;;;5061420;28;20489;-50
2022/04/06 10:57:57;;;;;;;2.80;1.42;;;14.40;60.10;;;;;;5069646;28;20060;-49
2022/04/06 11:00:25;;;;;;;2.20;1.60;;;14.40;59.80;;;;;;5063757;28;20055;-48
2022/04/06 11:02:53;;;;;;;2.85;1.70;;;14.40;60.40;;;;;;5065236;28;20037;-47
2022/04/06 11:05:40;;;;;;;3.92;1.83;;;14.40;60.20;;;;;;5060672;28;20052;-48
2022/04/06 11:11:33;;;;;;;2.15;1.40;;;14.50;59.90;;;;;;5055909;28;20045;-49
2022/04/06 11:14:01;;;;;;;1.70;1.60;;;14.50;59.20;;;;;;5049824;28;20037;-48
2022/04/06 11:16:54;;;;;;;1.30;1.20;;;14.50;59.70;;;;;;5061476;28;20106;-52
2022/04/06 11:19:21;;;;;;;3.10;1.23;;;14.50;59.30;;;;;;5045310;28;20451;-48
2022/04/06 11:21:55;;;;;;;1.92;1.52;;;14.50;59.90;;;;;;5063362;28;20033;-48
2022/04/06 11:24:27;;;;;;;2.95;1.60;;;14.40;59.90;;;;;;5064623;28;20053;-50
2022/04/06 11:26:54;;;;;;;3.58;1.60;;;14.40;60.00;;;;;;5047719;28;20052;-47
2022/04/06 11:29:28;;;;;;;3.55;1.48;;;14.40;60.10;;;;;;5068918;28;20037;-51
2022/04/06 11:31:56;;;;;;;2.10;1.55;;;14.50;59.40;;;;;;5056835;28;20045;-49
2022/04/06 11:34:34;;;;;;;2.10;1.30;;;14.40;59.60;;;;;;5053886;28;20044;-47
2022/04/06 11:37:03;;;;;;;3.00;1.38;;;14.40;59.10;;;;;;5052611;28;20049;-49
2022/04/06 11:39:30;;;;;;;4.75;1.85;;;14.40;60.10;;;;;;5070384;28;20044;-49
2022/04/06 11:41:59;;;;;;;3.38;1.45;;;14.50;59.70;;;;;;5064787;28;20107;-46
2022/04/06 11:44:28;;;;;;;1.98;1.30;;;14.40;59.90;;;;;;5053641;28;20106;-48
2022/04/06 11:46:56;;;;;;;3.13;1.65;;;14.30;60.70;;;;;;5041812;28;20585;-50
2022/04/06 11:49:24;;;;;;;2.05;1.52;;;14.40;60.00;;;;;;5063138;28;20124;-50
2022/04/06 11:51:54;;;;;;;3.65;1.08;;;14.40;59.90;;;;;;5066932;28;20139;-46
2022/04/06 11:54:22;;;;;;;2.28;1.30;;;14.40;59.80;;;;;;5063892;28;20546;-50
2022/04/06 11:56:50;;;;;;;2.03;1.38;;;14.50;60.00;;;;;;5063585;28;20048;-50
2022/04/06 11:59:19;;;;;;;1.30;1.10;;;14.50;59.80;;;;;;5068820;28;20044;-49
2022/04/06 12:01:51;;;;;;;4.20;1.73;;;14.50;59.80;;;;;;5063317;28;20033;-46
2022/04/06 12:04:23;;;;;;;3.42;2.20;;;14.50;59.50;;;;;;5072181;28;20052;-47
2022/04/06 12:06:52;;;;;;;3.17;1.73;;;14.50;59.60;;;;;;5065528;28;20056;-51
2022/04/06 12:09:20;;;;;;;4.13;1.42;;;14.50;59.70;;;;;;5057328;28;20107;-50
2022/04/06 12:11:51;;;;;;;2.45;1.45;;;14.50;60.20;;;;;;5040518;28;20040;-47
2022/04/06 12:14:19;;;;;;;2.92;1.83;;;14.60;60.80;;;;;;5063837;28;20203;-50
2022/04/06 12:16:49;;;;;;;1.85;1.73;;;14.60;61.20;;;;;;5064940;28;20045;-51
2022/04/06 12:19:18;;;;;;;1.73;1.52;;;14.70;61.00;;;;;;5064638;28;20048;-50
2022/04/06 12:21:46;;;;;;;4.82;1.88;;;14.70;60.90;;;;;;5072498;28;20040;-51
2022/04/06 12:24:13;;;;;;;3.78;1.95;;;14.80;61.20;;;;;;5061950;28;20102;-48
2022/04/06 12:26:54;;;;;;;2.92;1.58;;;14.80;61.20;;;;;;5068512;28;20041;-53
2022/04/06 12:29:21;;;;;;;5.63;1.63;;;14.90;60.90;;;;;;5059902;28;20048;-49
2022/04/06 12:31:48;;;;;;;2.08;1.83;;;14.80;60.60;;;;;;5062746;28;20044;-51
2022/04/06 12:34:36;;;;;;;3.17;2.00;;;14.90;60.70;;;;;;5044612;28;20776;-51
2022/04/06 12:39:57;;;;;;;3.03;1.58;;;14.90;61.10;;;;;;5062342;28;20040;-51
2022/04/06 12:42:25;;;;;;;3.50;1.52;;;14.80;60.80;;;;;;5068332;28;20037;-50
2022/04/06 12:45:02;;;;;;;2.88;2.10;;;14.80;60.70;;;;;;5064420;28;20052;-50
2022/04/06 12:47:28;;;;;;;1.63;1.45;;;14.80;60.60;;;;;;5063079;28;20052;-50
2022/04/06 12:50:09;;;;;;;2.13;1.92;;;14.80;60.90;;;;;;5060622;28;20053;-52
2022/04/06 12:52:39;;;;;;;2.97;2.05;;;14.80;60.70;;;;;;5063077;28;20052;-49
2022/04/06 12:55:13;;;;;;;2.40;1.58;;;14.80;61.10;;;;;;5064049;28;20050;-51
2022/04/06 12:57:42;;;;;;;4.50;2.28;;;14.80;60.30;;;;;;5059962;28;20040;-50
2022/04/06 13:00:20;;;;;;;3.15;1.92;;;14.80;60.60;;;;;;5061571;28;20037;-50
2022/04/06 13:02:53;;;;;;;1.80;1.70;;;14.90;60.30;;;;;;5063588;28;20041;-52
2022/04/06 13:05:22;;;;;;;2.20;1.75;;;14.90;60.30;;;;;;5059716;28;20033;-48
2022/04/06 13:07:50;;;;;;;2.45;2.00;;;15.00;59.90;;;;;;5062882;28;20087;-48